AirNav   Everest Fuels
 
 1012 users online  

8LL1 Hunter Airport
Woodstock, Illinois, USA

GOING TO WOODSTOCK?


FAA INFORMATION EFFECTIVE 10 SEPTEMBER 2020

Location

FAA Identifier: 8LL1
Lat/Long: 42-21-24.0730N 088-30-22.3380W
42-21.401217N 088-30.372300W
42.3566869,-88.5062050
(estimated)
Elevation: 914 ft. / 279 m (estimated)
Variation: 01W (1985)
From city: 3 miles SE of WOODSTOCK, IL
Time zone: UTC -5 (UTC -6 during Standard Time)
Zip code: 60098

Airport Operations

Airport use: Private use. Permission required prior to landing
Activation date: 12/1975
Control tower: no
ARTCC: CHICAGO CENTER
FSS: KANKAKEE FLIGHT SERVICE STATION
Attendance: UNATNDD
Wind indicator: no
Segmented circle: no

Nearby radio navigation aids

VOR radial/distance  VOR name  Freq  Var
OBKr290/25.9NORTHBROOK VOR/DME113.0002W
DPAr344/28.8DUPAGE VOR/DME108.4002E
JVLr111/29.1JANESVILLE VOR/DME114.3003E
RFDr075/31.8ROCKFORD VOR/DME110.8001E

 
NDB name  Hdg/Dist  Freq  Var  ID
LAKE LAWN171/20.940402WLVV .-.. ...- ...-

Airport Services

Runway Information

Runway 9/27

Dimensions: 1895 x 70 ft. / 578 x 21 m
Surface: turf
RUNWAY 9  RUNWAY 27
Traffic pattern: rightleft
Obstructions: trees, 400 ft. from runwayrr, 300 ft. from runway

Airport Ownership and Management from official FAA records

Ownership: Privately-owned
Owner: LAWRENCE G. HUNTER
2120 HARTLAND RD
WOODSTOCK, IL 60098
Phone 815-338-5307
Manager: LAWRENCE G. HUNTER
2120 HARTLAND RD
WOODSTOCK, IL 60098
Phone 815-338-5307

Airport Operational Statistics

Aircraft based on the field: 1
Single engine airplanes: 1
    

Additional Remarks

FOR CD CTC CHICAGO APCH AT 847-289-0926.

Instrument Procedures

There are no published instrument procedures at 8LL1.

Some nearby airports with instrument procedures:

10C - Galt Field Airport (6 nm NE)
3CK - Lake in the Hills Airport (12 nm SE)
C77 - Poplar Grove Airport (15 nm W)
C02 - Grand Geneva Resort Airport (16 nm N)
C81 - Campbell Airport (19 nm E)
 
Loc | Ops | Rwys | IFR | FBO | Links
Com | Nav | Svcs | Stats | Notes
Area around 8LL1 (Hunter Airport)
 
Road maps at: MapQuest Bing Google
 
Aerial photo
No photo
 
Sectional chart

 
Airport distance calculator
Flying to Hunter Airport? Find the distance to fly.

From to 8LL1

Sunrise and sunset
Times for 27-Sep-2020
 Local
(UTC-5)
 Zulu
(UTC)
Morning civil twilight06:2111:21
Sunrise06:4911:49
Sunset18:4123:41
Evening civil twilight19:0900:09

Current date and time
Zulu (UTC)  28-Sep-2020 00:40:24
Local (UTC-5)  27-Sep-2020 19:40:24
 
METAR
KBUU 
22nm NE 
280015Z AUTO 26003KT 10SM CLR 13/12 A2981 RMK AO2 T01260120 PWINO
KDKB 
27nm S 
280015Z AUTO 31003KT 10SM OVC100 13/13 A2983 RMK AO2 T01320129
K57C 
27nm N 
280015Z AUTO 26005KT 10SM BKN005 BKN060 OVC100 12/12 A2981 RMK AO2 T01180118
KJVL 
27nm NW 
272345Z VRB04KT 10SM SCT070 BKN090 OVC110 13/13 A2982
KRFD 
28nm W 
272354Z 20004KT 3SM -RA BR SCT009 BKN085 OVC100 13/11 A2983 RMK AO2 SFC VIS 4 SLP099 P0008 60022 T01280111 10233 20128 56012
K06C 
28nm SE 
280015Z AUTO 32005KT 10SM SCT120 16/10 A2981 RMK AO2 T01580103
KUGN 
29nm E 
272355Z 30007KT 10SM -RA FEW060 OVC100 16/ A2979 RMK AO2 RAB48 SLP082 P0000 60000 T0156 10239 20156 50007 $
KDPA 
29nm SE 
272352Z 32013G19KT 10SM FEW120 16/10 A2980 RMK AO2 SLP088 T01610100 10244 20161 50004
KENW 
29nm NE 
272353Z 28006KT 7SM -RA OVC100 14/12 A2981 RMK AO2 RAE2255B16 SLP093 P0005 60005 T01440122 10244 20144 50006
KPWK 
31nm SE 
272352Z 33011KT 10SM CLR 17/10 A2980 RMK AO2 SLP089 T01720100 10244 20172 50005
TAF
KJVL 
27nm NW 
272128Z 2721/2818 29011G19KT P6SM -RA BKN060 OVC100 FM272200 25007KT 6SM -SHRA SCT060 OVC080 FM280700 24005KT 6SM -SHRA BR OVC030 FM280900 25005KT P6SM VCSH OVC010 FM281200 28005KT P6SM BKN009 FM281400 31007KT P6SM BKN015 FM281700 31010KT P6SM BKN035
KRFD 
28nm W 
272228Z 2722/2818 29009KT 6SM -RA SCT015 OVC040 TEMPO 2722/2801 2SM -RA BR SCT009 BKN015 FM280100 26008KT 6SM -RA SCT025 OVC050 TEMPO 2801/2805 4SM RA BR BKN020 FM280600 25006KT 5SM BR VCSH SCT007 OVC015 FM281300 31009KT P6SM OVC015
KDPA 
29nm SE 
272100Z 2721/2818 33012G18KT P6SM SCT050 OVC100 FM280100 32009KT 6SM -RA SCT025 OVC050 TEMPO 2804/2808 4SM RA BR BKN025 FM280900 29009KT 6SM -SHRA BR SCT008 OVC015 TEMPO 2809/2813 4SM -RA BR BKN008
KENW 
29nm NE 
272126Z 2721/2818 29013G22KT P6SM FEW030 SCT080 BKN100 FM272300 29009KT 6SM SHRA BR OVC070 FM280600 26005KT 6SM SHRA BR OVC050 FM281000 26006KT 6SM SHRA BR OVC022 FM281200 26007KT 6SM -SHRA BR OVC017 FM281500 29008KT 6SM -SHRA BR OVC015
KORD 
34nm SE 
272100Z 2721/2824 33013G20KT P6SM SCT050 OVC100 FM280130 32009KT 6SM -RA SCT025 OVC050 TEMPO 2804/2808 4SM RA BR BKN025 FM280900 29009KT 6SM -SHRA BR SCT008 OVC015 TEMPO 2809/2813 4SM -RA BR BKN008 FM281800 29012G18KT P6SM VCSH SCT012 OVC020
NOTAMs
Click for the latest NOTAMs
NOTAMs are issued by the DoD/FAA and will open in a separate window not controlled by AirNav.

 

 
 

Would you like to see your business listed on this page?

 If your business provides an interesting product or service to pilots, flight crews, aircraft, or users of the Hunter Airport, you should consider listing it here.  To start the listing process, click on the button below
 
Add a business
 

Other Pages about Hunter Airport

Update a link
 
Copyright © AirNav, LLC. All rights reserved. Privacy Policy  Contact